Flight Track Log - Related Links

Times and Time Zones

All times are in EDT time to prevent confusion due to time zone crossing. See the GUJ334 flight status page for this flight to view local times or setup timezone preferences in your user account.

Time Position Orientation Groundspeed Altitude Reporting Facility
EDT Latitude Longitude Course Direction KTS MPH feet Rate Location/Type
Sun 10:55:00 PM 26.8665 76.2906 203° Southwest  Level Estimated
Sun 10:56:00 PM 26.7892 76.2542 203° Southwest  Level Estimated
Sun 10:57:00 PM 26.7118 76.2180 203° Southwest  Level Estimated
Sun 10:58:00 PM 26.6344 76.1817 203° Southwest  Level Estimated
Sun 10:59:00 PM 26.5570 76.1455 203° Southwest  Level Estimated
Sun 11:00:00 PM 26.4795 76.1094 203° Southwest  Level Estimated
Sun 11:01:00 PM 26.4021 76.0733 203° Southwest  Level Estimated
Sun 11:02:00 PM 26.3247 76.0372 203° Southwest  Level Estimated
Sun 11:03:00 PM 26.2472 76.0012 203° Southwest  Level Estimated
Sun 11:04:00 PM 26.1698 75.9653 203° Southwest  Level Estimated
Sun 11:05:00 PM 26.0923 75.9294 203° Southwest  Level Estimated
Sun 11:06:00 PM 26.0148 75.8935 203° Southwest  Level Estimated
Sun 11:07:00 PM 25.9374 75.8577 203° Southwest  Level Estimated
Sun 11:08:00 PM 25.8599 75.8220 203° Southwest  Level Estimated
Sun 11:09:00 PM 25.7824 75.7862 203° Southwest  Level Estimated
Sun 11:10:00 PM 25.7049 75.7506 203° Southwest  Level Estimated
Sun 11:11:00 PM 25.6273 75.7150 203° Southwest  Level Estimated
Sun 11:12:00 PM 25.5498 75.6794 202° Southwest  Level Estimated
Sun 11:13:00 PM 25.4723 75.6439 202° Southwest  Level Estimated
Sun 11:14:00 PM 25.3948 75.6084 202° Southwest  Level Estimated
Sun 11:15:00 PM 25.3172 75.5729 202° Southwest  Level Estimated
Sun 11:16:00 PM 25.2396 75.5376 202° Southwest  Level Estimated
Sun 11:17:00 PM 25.1621 75.5022 202° Southwest  Level Estimated
Sun 11:18:00 PM 25.0845 75.4669 202° Southwest  Level Estimated
Sun 11:19:00 PM 25.0069 75.4316 202° Southwest  Level Estimated
Sun 11:20:00 PM 24.9293 75.3964 202° Southwest  Level Estimated
Sun 11:21:00 PM 24.8517 75.3613 202° Southwest  Level Estimated
Sun 11:22:00 PM 24.7741 75.3261 202° Southwest  Level Estimated
Sun 11:23:00 PM 24.6965 75.2911 202° Southwest  Level Estimated
Sun 11:24:00 PM 24.6189 75.2560 202° Southwest  Level Estimated
Sun 11:25:00 PM 24.5412 75.2210 202° Southwest  Level Estimated
Sun 11:26:00 PM 24.4636 75.1861 202° Southwest  Level Estimated
Sun 11:27:00 PM 24.3860 75.1512 202° Southwest  Level Estimated
Sun 11:28:00 PM 24.3083 75.1163 202° Southwest  Level Estimated
Sun 11:29:00 PM 24.2306 75.0815 202° Southwest  Level Estimated
Sun 11:30:00 PM 24.1530 75.0467 202° Southwest  Level Estimated
Sun 11:31:00 PM 24.0753 75.0120 202° Southwest  Level Estimated
Sun 11:32:00 PM 23.9976 74.9773 202° Southwest  Level Estimated
Sun 11:33:00 PM 23.9199 74.9426 202° Southwest  Level Estimated
Sun 11:34:00 PM 23.8422 74.9080 202° Southwest  Level Estimated
Sun 11:35:00 PM 23.7645 74.8735 202° Southwest  Level Estimated
Sun 11:36:00 PM 23.6868 74.8389 202° Southwest  Level Estimated
Sun 11:37:00 PM 23.6090 74.8044 202° Southwest  Level Estimated
Sun 11:38:00 PM 23.5313 74.7700 202° Southwest  Level Estimated
Sun 11:39:00 PM 23.4536 74.7356 202° Southwest  Level Estimated
Sun 11:40:00 PM 23.3758 74.7012 202° Southwest  Level Estimated
Sun 11:41:00 PM 23.2980 74.6669 202° Southwest  Level Estimated
Sun 11:42:00 PM 23.2203 74.6326 202° Southwest  Level Estimated
Sun 11:43:00 PM 23.1425 74.5984 202° Southwest  Level Estimated
Sun 11:44:00 PM 23.0647 74.5641 202° Southwest  Level Estimated
Sun 11:45:00 PM 22.9869 74.5300 202° Southwest  Level Estimated
Sun 11:46:00 PM 22.9092 74.4958 202° Southwest  Level Estimated
Sun 11:47:00 PM 22.8314 74.4617 202° Southwest  Level Estimated
Sun 11:48:00 PM 22.7535 74.4277 202° Southwest  Level Estimated
Sun 11:49:00 PM 22.6757 74.3937 202° Southwest  Level Estimated
Sun 11:50:00 PM 22.5979 74.3597 202° Southwest  Level Estimated
Sun 11:51:00 PM 22.5201 74.3258 202° Southwest  Level Estimated
Sun 11:52:00 PM 22.4422 74.2919 202° Southwest  Level Estimated
Sun 11:53:00 PM 22.3644 74.2580 202° Southwest  Level Estimated
Sun 11:54:00 PM 22.2866 74.2242 202° Southwest  Level Estimated
Sun 11:55:00 PM 22.2087 74.1904 202° Southwest  Level Estimated
Sun 11:56:00 PM 22.1308 74.1567 202° Southwest  Level Estimated
Sun 11:57:00 PM 22.0529 74.1230 202° Southwest  Level Estimated
Sun 11:58:00 PM 21.9751 74.0893 202° Southwest  Level Estimated
Sun 11:59:00 PM 21.8972 74.0557 202° Southwest  Level Estimated
Mon 12:00:00 AM 21.8193 74.0221 202° Southwest  Level Estimated
Mon 12:01:00 AM 21.7414 73.9885 202° Southwest  Level Estimated
Mon 12:02:00 AM 21.6635 73.9550 202° Southwest  Level Estimated
Mon 12:03:00 AM 21.5856 73.9215 202° Southwest  Level Estimated
Mon 12:04:00 AM 21.5077 73.8881 202° Southwest  Level Estimated
Mon 12:05:00 AM 21.4297 73.8547 202° Southwest  Level Estimated
Mon 12:06:00 AM 21.3518 73.8213 202° Southwest  Level Estimated
Mon 12:07:00 AM 21.2738 73.7879 202° Southwest  Level Estimated
Mon 12:08:00 AM 21.1959 73.7546 202° Southwest  Level Estimated
Mon 12:09:00 AM 21.1180 73.7214 202° Southwest  Level Estimated
Mon 12:10:00 AM 21.0400 73.6881 202° Southwest  Level Estimated
Mon 12:11:00 AM 20.9620 73.6549 202° Southwest  Level Estimated
Mon 12:12:00 AM 20.8841 73.6217 202° Southwest  Level Estimated
Mon 12:13:00 AM 20.8061 73.5886 202° Southwest  Level Estimated
Mon 12:14:00 AM 20.7281 73.5555 202° Southwest  Level Estimated
Mon 12:15:00 AM 20.6501 73.5225 202° Southwest  Level Estimated
Mon 12:16:00 AM 20.5721 73.4894 202° Southwest  Level Estimated
Mon 12:17:00 AM 20.4941 73.4564 202° Southwest  Level Estimated
Mon 12:18:00 AM 20.4161 73.4235 202° Southwest  Level Estimated
Mon 12:19:00 AM 20.3381 73.3905 202° Southwest  Level Estimated
Mon 12:20:00 AM 20.2600 73.3576 202° Southwest  Level Estimated
Mon 12:21:00 AM 20.1820 73.3248 202° Southwest  Level Estimated
Mon 12:22:00 AM 20.1040 73.2919 202° Southwest  Level Estimated
Mon 12:23:00 AM 20.0259 73.2591 202° Southwest  Level Estimated
Mon 12:24:00 AM 19.9479 73.2264 202° Southwest  Level Estimated
Mon 12:25:00 AM 19.8698 73.1936 202° Southwest  Level Estimated
Mon 12:26:00 AM 19.7918 73.1609 202° Southwest  Level Estimated
Mon 12:27:00 AM 19.7137 73.1283 202° Southwest  Level Estimated
Mon 12:28:00 AM 19.6357 73.0956 201° Southwest  Level Estimated
Mon 12:29:00 AM 19.5576 73.0630 201° Southwest  Level Estimated
Mon 12:30:00 AM 19.4795 73.0304 201° Southwest  Level Estimated

Login

Don't have an account? Register now (free) for customized features, flight alerts, and more!